sensor_id;sensor_type;location;lat;lon;timestamp;P1;durP1;ratioP1;P2;durP2;ratioP2
3918;SDS011;1974;48.670;8.994;2023-05-21T00:00:40;7.80;;;4.60;;
3918;SDS011;1974;48.670;8.994;2023-05-21T00:03:07;7.00;;;4.80;;
3918;SDS011;1974;48.670;8.994;2023-05-21T00:05:37;7.90;;;4.83;;
3918;SDS011;1974;48.670;8.994;2023-05-21T00:08:04;12.23;;;6.20;;
3918;SDS011;1974;48.670;8.994;2023-05-21T00:10:32;10.80;;;6.47;;
3918;SDS011;1974;48.670;8.994;2023-05-21T00:12:59;7.07;;;4.87;;
3918;SDS011;1974;48.670;8.994;2023-05-21T00:15:26;9.90;;;4.43;;
3918;SDS011;1974;48.670;8.994;2023-05-21T00:17:53;4.97;;;3.47;;
3918;SDS011;1974;48.670;8.994;2023-05-21T00:20:19;7.90;;;5.60;;
3918;SDS011;1974;48.670;8.994;2023-05-21T00:22:47;9.30;;;4.60;;
3918;SDS011;1974;48.670;8.994;2023-05-21T00:25:14;7.30;;;4.40;;
3918;SDS011;1974;48.670;8.994;2023-05-21T00:27:42;6.70;;;4.30;;
3918;SDS011;1974;48.670;8.994;2023-05-21T00:30:08;9.90;;;4.80;;
3918;SDS011;1974;48.670;8.994;2023-05-21T00:32:35;6.63;;;4.67;;
3918;SDS011;1974;48.670;8.994;2023-05-21T00:35:02;7.70;;;4.20;;
3918;SDS011;1974;48.670;8.994;2023-05-21T00:37:30;9.40;;;5.00;;
3918;SDS011;1974;48.670;8.994;2023-05-21T00:39:58;6.47;;;5.43;;
3918;SDS011;1974;48.670;8.994;2023-05-21T00:42:25;6.10;;;4.40;;
3918;SDS011;1974;48.670;8.994;2023-05-21T00:44:55;9.70;;;4.90;;
3918;SDS011;1974;48.670;8.994;2023-05-21T00:47:22;7.43;;;4.37;;
3918;SDS011;1974;48.670;8.994;2023-05-21T00:49:51;8.00;;;4.43;;
3918;SDS011;1974;48.670;8.994;2023-05-21T00:52:18;5.73;;;4.37;;
3918;SDS011;1974;48.670;8.994;2023-05-21T00:54:47;5.17;;;3.90;;
3918;SDS011;1974;48.670;8.994;2023-05-21T00:57:15;8.33;;;5.47;;
3918;SDS011;1974;48.670;8.994;2023-05-21T00:59:44;6.30;;;4.47;;
3918;SDS011;1974;48.670;8.994;2023-05-21T01:02:13;9.43;;;4.70;;
3918;SDS011;1974;48.670;8.994;2023-05-21T01:04:42;8.43;;;4.87;;
3918;SDS011;1974;48.670;8.994;2023-05-21T01:07:09;7.70;;;4.70;;
3918;SDS011;1974;48.670;8.994;2023-05-21T01:09:36;6.17;;;4.23;;
3918;SDS011;1974;48.670;8.994;2023-05-21T01:12:04;11.87;;;4.90;;
3918;SDS011;1974;48.670;8.994;2023-05-21T01:14:31;7.47;;;4.27;;
3918;SDS011;1974;48.670;8.994;2023-05-21T01:16:59;9.10;;;5.83;;
3918;SDS011;1974;48.670;8.994;2023-05-21T01:19:28;6.93;;;5.10;;
3918;SDS011;1974;48.670;8.994;2023-05-21T01:21:59;8.93;;;4.40;;
3918;SDS011;1974;48.670;8.994;2023-05-21T01:24:30;9.70;;;4.90;;
3918;SDS011;1974;48.670;8.994;2023-05-21T01:26:57;13.77;;;5.10;;
3918;SDS011;1974;48.670;8.994;2023-05-21T01:29:24;8.33;;;5.37;;
3918;SDS011;1974;48.670;8.994;2023-05-21T01:31:53;5.40;;;4.43;;
3918;SDS011;1974;48.670;8.994;2023-05-21T01:34:31;6.20;;;3.83;;
3918;SDS011;1974;48.670;8.994;2023-05-21T01:37:05;12.37;;;4.70;;
3918;SDS011;1974;48.670;8.994;2023-05-21T01:39:41;9.63;;;4.63;;
3918;SDS011;1974;48.670;8.994;2023-05-21T01:42:14;11.47;;;5.70;;
3918;SDS011;1974;48.670;8.994;2023-05-21T01:44:41;8.80;;;5.13;;
3918;SDS011;1974;48.670;8.994;2023-05-21T01:47:10;5.10;;;4.10;;
3918;SDS011;1974;48.670;8.994;2023-05-21T01:49:37;7.50;;;4.90;;
3918;SDS011;1974;48.670;8.994;2023-05-21T01:52:05;11.10;;;5.97;;
3918;SDS011;1974;48.670;8.994;2023-05-21T01:54:32;7.50;;;4.87;;
3918;SDS011;1974;48.670;8.994;2023-05-21T01:57:00;10.10;;;5.73;;
3918;SDS011;1974;48.670;8.994;2023-05-21T01:59:27;9.93;;;5.10;;
3918;SDS011;1974;48.670;8.994;2023-05-21T02:01:54;9.67;;;4.43;;
3918;SDS011;1974;48.670;8.994;2023-05-21T02:04:21;9.20;;;4.67;;
3918;SDS011;1974;48.670;8.994;2023-05-21T02:06:48;11.63;;;5.53;;
3918;SDS011;1974;48.670;8.994;2023-05-21T02:09:15;9.00;;;4.70;;
3918;SDS011;1974;48.670;8.994;2023-05-21T02:11:41;6.73;;;4.70;;
3918;SDS011;1974;48.670;8.994;2023-05-21T02:14:09;11.60;;;5.00;;
3918;SDS011;1974;48.670;8.994;2023-05-21T02:16:37;9.83;;;5.53;;
3918;SDS011;1974;48.670;8.994;2023-05-21T02:19:05;15.23;;;6.00;;
3918;SDS011;1974;48.670;8.994;2023-05-21T02:21:34;9.67;;;5.67;;
3918;SDS011;1974;48.670;8.994;2023-05-21T02:24:01;8.37;;;5.10;;
3918;SDS011;1974;48.670;8.994;2023-05-21T02:26:27;9.60;;;4.87;;
3918;SDS011;1974;48.670;8.994;2023-05-21T02:28:54;11.00;;;5.17;;
3918;SDS011;1974;48.670;8.994;2023-05-21T02:31:22;9.50;;;5.90;;
3918;SDS011;1974;48.670;8.994;2023-05-21T02:33:49;8.90;;;6.20;;
3918;SDS011;1974;48.670;8.994;2023-05-21T02:36:15;12.13;;;5.40;;
3918;SDS011;1974;48.670;8.994;2023-05-21T02:38:43;7.00;;;5.00;;
3918;SDS011;1974;48.670;8.994;2023-05-21T02:41:11;9.93;;;4.77;;
3918;SDS011;1974;48.670;8.994;2023-05-21T02:43:38;9.00;;;5.20;;
3918;SDS011;1974;48.670;8.994;2023-05-21T02:46:05;13.00;;;5.93;;
3918;SDS011;1974;48.670;8.994;2023-05-21T02:48:33;11.63;;;6.57;;
3918;SDS011;1974;48.670;8.994;2023-05-21T02:51:00;9.73;;;5.70;;
3918;SDS011;1974;48.670;8.994;2023-05-21T02:53:27;9.53;;;6.20;;
3918;SDS011;1974;48.670;8.994;2023-05-21T02:55:53;18.97;;;5.77;;
3918;SDS011;1974;48.670;8.994;2023-05-21T02:58:20;6.60;;;4.80;;
3918;SDS011;1974;48.670;8.994;2023-05-21T03:00:49;9.33;;;4.77;;
3918;SDS011;1974;48.670;8.994;2023-05-21T03:03:16;11.40;;;5.20;;
3918;SDS011;1974;48.670;8.994;2023-05-21T03:05:44;12.43;;;5.23;;
3918;SDS011;1974;48.670;8.994;2023-05-21T03:08:12;9.07;;;5.97;;
3918;SDS011;1974;48.670;8.994;2023-05-21T03:10:39;13.10;;;5.27;;
3918;SDS011;1974;48.670;8.994;2023-05-21T03:13:05;12.60;;;5.40;;
3918;SDS011;1974;48.670;8.994;2023-05-21T03:15:32;11.03;;;4.80;;
3918;SDS011;1974;48.670;8.994;2023-05-21T03:17:59;11.33;;;5.80;;
3918;SDS011;1974;48.670;8.994;2023-05-21T03:20:26;9.57;;;5.67;;
3918;SDS011;1974;48.670;8.994;2023-05-21T03:22:55;10.67;;;5.30;;
3918;SDS011;1974;48.670;8.994;2023-05-21T03:25:21;9.50;;;5.33;;
3918;SDS011;1974;48.670;8.994;2023-05-21T03:27:49;10.50;;;5.90;;
3918;SDS011;1974;48.670;8.994;2023-05-21T03:30:16;8.90;;;5.40;;
3918;SDS011;1974;48.670;8.994;2023-05-21T03:32:43;13.37;;;7.03;;
3918;SDS011;1974;48.670;8.994;2023-05-21T03:35:10;15.83;;;5.33;;
3918;SDS011;1974;48.670;8.994;2023-05-21T03:37:36;13.93;;;5.77;;
3918;SDS011;1974;48.670;8.994;2023-05-21T03:40:05;11.93;;;7.00;;
3918;SDS011;1974;48.670;8.994;2023-05-21T03:42:33;11.33;;;5.60;;
3918;SDS011;1974;48.670;8.994;2023-05-21T03:44:59;7.20;;;4.63;;
3918;SDS011;1974;48.670;8.994;2023-05-21T03:47:26;8.97;;;4.73;;
3918;SDS011;1974;48.670;8.994;2023-05-21T03:49:53;10.53;;;5.63;;
3918;SDS011;1974;48.670;8.994;2023-05-21T03:52:20;9.90;;;5.60;;
3918;SDS011;1974;48.670;8.994;2023-05-21T03:54:47;8.87;;;5.07;;
3918;SDS011;1974;48.670;8.994;2023-05-21T03:57:15;9.97;;;5.83;;
3918;SDS011;1974;48.670;8.994;2023-05-21T03:59:41;8.93;;;5.50;;
3918;SDS011;1974;48.670;8.994;2023-05-21T04:02:08;9.63;;;5.67;;
3918;SDS011;1974;48.670;8.994;2023-05-21T04:04:35;11.03;;;5.40;;
3918;SDS011;1974;48.670;8.994;2023-05-21T04:07:02;11.13;;;5.30;;
3918;SDS011;1974;48.670;8.994;2023-05-21T04:09:29;10.73;;;5.07;;
3918;SDS011;1974;48.670;8.994;2023-05-21T04:11:56;11.13;;;5.53;;
3918;SDS011;1974;48.670;8.994;2023-05-21T04:14:24;11.90;;;6.17;;
3918;SDS011;1974;48.670;8.994;2023-05-21T04:16:51;13.00;;;6.07;;
3918;SDS011;1974;48.670;8.994;2023-05-21T04:19:17;11.80;;;4.60;;
3918;SDS011;1974;48.670;8.994;2023-05-21T04:21:44;12.37;;;5.70;;
3918;SDS011;1974;48.670;8.994;2023-05-21T04:24:11;11.73;;;6.20;;
3918;SDS011;1974;48.670;8.994;2023-05-21T04:26:38;13.30;;;6.60;;
3918;SDS011;1974;48.670;8.994;2023-05-21T04:29:06;12.57;;;6.20;;
3918;SDS011;1974;48.670;8.994;2023-05-21T04:31:35;13.60;;;5.67;;
3918;SDS011;1974;48.670;8.994;2023-05-21T04:34:01;10.70;;;5.90;;
3918;SDS011;1974;48.670;8.994;2023-05-21T04:36:28;12.03;;;5.80;;
3918;SDS011;1974;48.670;8.994;2023-05-21T04:38:55;11.77;;;5.93;;
3918;SDS011;1974;48.670;8.994;2023-05-21T04:41:22;10.47;;;5.67;;
3918;SDS011;1974;48.670;8.994;2023-05-21T04:43:49;7.10;;;4.90;;
3918;SDS011;1974;48.670;8.994;2023-05-21T04:46:19;14.23;;;6.60;;
3918;SDS011;1974;48.670;8.994;2023-05-21T04:48:50;13.87;;;6.47;;
3918;SDS011;1974;48.670;8.994;2023-05-21T04:51:18;15.00;;;6.30;;
3918;SDS011;1974;48.670;8.994;2023-05-21T04:53:45;13.70;;;6.80;;
3918;SDS011;1974;48.670;8.994;2023-05-21T04:56:14;10.37;;;5.20;;
3918;SDS011;1974;48.670;8.994;2023-05-21T04:58:42;9.10;;;5.67;;
3918;SDS011;1974;48.670;8.994;2023-05-21T05:01:09;11.40;;;5.77;;
3918;SDS011;1974;48.670;8.994;2023-05-21T05:03:36;13.20;;;6.10;;
3918;SDS011;1974;48.670;8.994;2023-05-21T05:06:04;9.03;;;5.73;;
3918;SDS011;1974;48.670;8.994;2023-05-21T05:08:32;13.37;;;6.10;;
3918;SDS011;1974;48.670;8.994;2023-05-21T05:10:59;8.23;;;4.53;;
3918;SDS011;1974;48.670;8.994;2023-05-21T05:13:26;12.33;;;5.70;;
3918;SDS011;1974;48.670;8.994;2023-05-21T05:15:53;10.43;;;6.13;;
3918;SDS011;1974;48.670;8.994;2023-05-21T05:18:21;9.50;;;5.23;;
3918;SDS011;1974;48.670;8.994;2023-05-21T05:20:48;11.73;;;5.90;;
3918;SDS011;1974;48.670;8.994;2023-05-21T05:23:16;11.53;;;5.67;;
3918;SDS011;1974;48.670;8.994;2023-05-21T05:25:42;12.63;;;6.33;;
3918;SDS011;1974;48.670;8.994;2023-05-21T05:28:09;9.10;;;5.53;;
3918;SDS011;1974;48.670;8.994;2023-05-21T05:30:36;12.93;;;6.33;;
3918;SDS011;1974;48.670;8.994;2023-05-21T05:33:03;11.63;;;6.47;;
3918;SDS011;1974;48.670;8.994;2023-05-21T05:35:29;11.77;;;6.13;;
3918;SDS011;1974;48.670;8.994;2023-05-21T05:37:56;10.17;;;5.30;;
3918;SDS011;1974;48.670;8.994;2023-05-21T05:40:25;8.80;;;5.47;;
3918;SDS011;1974;48.670;8.994;2023-05-21T05:42:51;12.47;;;6.00;;
3918;SDS011;1974;48.670;8.994;2023-05-21T05:45:18;10.83;;;5.50;;
3918;SDS011;1974;48.670;8.994;2023-05-21T05:47:45;10.90;;;5.70;;
3918;SDS011;1974;48.670;8.994;2023-05-21T05:50:12;13.13;;;6.93;;
3918;SDS011;1974;48.670;8.994;2023-05-21T05:52:38;9.73;;;4.83;;
3918;SDS011;1974;48.670;8.994;2023-05-21T05:55:05;10.27;;;6.27;;
3918;SDS011;1974;48.670;8.994;2023-05-21T05:57:34;9.47;;;5.73;;
3918;SDS011;1974;48.670;8.994;2023-05-21T06:00:01;10.93;;;5.70;;
3918;SDS011;1974;48.670;8.994;2023-05-21T06:02:28;11.83;;;6.77;;
3918;SDS011;1974;48.670;8.994;2023-05-21T06:04:55;14.83;;;7.17;;
3918;SDS011;1974;48.670;8.994;2023-05-21T06:07:22;12.10;;;6.20;;
3918;SDS011;1974;48.670;8.994;2023-05-21T06:09:49;17.23;;;7.10;;
3918;SDS011;1974;48.670;8.994;2023-05-21T06:12:16;12.40;;;6.27;;
3918;SDS011;1974;48.670;8.994;2023-05-21T06:14:44;11.97;;;6.87;;
3918;SDS011;1974;48.670;8.994;2023-05-21T06:17:12;11.17;;;4.97;;
3918;SDS011;1974;48.670;8.994;2023-05-21T06:19:40;12.00;;;6.00;;
3918;SDS011;1974;48.670;8.994;2023-05-21T06:22:06;11.37;;;5.60;;
3918;SDS011;1974;48.670;8.994;2023-05-21T06:24:33;9.80;;;6.90;;
3918;SDS011;1974;48.670;8.994;2023-05-21T06:27:00;12.23;;;7.20;;
3918;SDS011;1974;48.670;8.994;2023-05-21T06:29:27;14.07;;;6.83;;
3918;SDS011;1974;48.670;8.994;2023-05-21T06:31:56;13.33;;;7.27;;
3918;SDS011;1974;48.670;8.994;2023-05-21T06:34:22;21.20;;;6.90;;
3918;SDS011;1974;48.670;8.994;2023-05-21T06:36:49;8.60;;;5.80;;
3918;SDS011;1974;48.670;8.994;2023-05-21T06:39:16;9.63;;;6.63;;
3918;SDS011;1974;48.670;8.994;2023-05-21T06:41:43;12.40;;;6.83;;
3918;SDS011;1974;48.670;8.994;2023-05-21T06:44:10;10.07;;;6.63;;
3918;SDS011;1974;48.670;8.994;2023-05-21T06:46:37;14.43;;;6.17;;
3918;SDS011;1974;48.670;8.994;2023-05-21T06:49:05;10.80;;;6.07;;
3918;SDS011;1974;48.670;8.994;2023-05-21T06:51:32;12.17;;;6.80;;
3918;SDS011;1974;48.670;8.994;2023-05-21T06:53:58;10.63;;;6.40;;
3918;SDS011;1974;48.670;8.994;2023-05-21T06:56:25;19.30;;;7.00;;
3918;SDS011;1974;48.670;8.994;2023-05-21T06:58:52;11.20;;;6.23;;
3918;SDS011;1974;48.670;8.994;2023-05-21T07:01:19;14.57;;;7.13;;
3918;SDS011;1974;48.670;8.994;2023-05-21T07:03:47;9.80;;;5.13;;
3918;SDS011;1974;48.670;8.994;2023-05-21T07:06:15;9.93;;;6.70;;
3918;SDS011;1974;48.670;8.994;2023-05-21T07:08:42;8.70;;;5.63;;
3918;SDS011;1974;48.670;8.994;2023-05-21T07:11:08;11.60;;;5.40;;
3918;SDS011;1974;48.670;8.994;2023-05-21T07:13:35;9.67;;;5.90;;
3918;SDS011;1974;48.670;8.994;2023-05-21T07:16:02;9.27;;;6.40;;
3918;SDS011;1974;48.670;8.994;2023-05-21T07:18:29;9.73;;;6.23;;
3918;SDS011;1974;48.670;8.994;2023-05-21T07:20:56;8.90;;;5.23;;
3918;SDS011;1974;48.670;8.994;2023-05-21T07:23:24;7.87;;;5.70;;
3918;SDS011;1974;48.670;8.994;2023-05-21T07:25:51;10.80;;;6.03;;
3918;SDS011;1974;48.670;8.994;2023-05-21T07:28:18;11.67;;;6.17;;
3918;SDS011;1974;48.670;8.994;2023-05-21T07:30:45;12.97;;;6.80;;
3918;SDS011;1974;48.670;8.994;2023-05-21T07:33:12;10.27;;;5.57;;
3918;SDS011;1974;48.670;8.994;2023-05-21T07:35:39;7.53;;;4.90;;
3918;SDS011;1974;48.670;8.994;2023-05-21T07:38:05;6.72;;;4.82;;
3918;SDS011;1974;48.670;8.994;2023-05-21T07:40:33;7.60;;;5.78;;
3918;SDS011;1974;48.670;8.994;2023-05-21T07:43:00;7.22;;;4.78;;
3918;SDS011;1974;48.670;8.994;2023-05-21T07:45:27;6.32;;;5.25;;
3918;SDS011;1974;48.670;8.994;2023-05-21T07:47:54;5.07;;;4.53;;
3918;SDS011;1974;48.670;8.994;2023-05-21T07:50:20;7.20;;;5.60;;
3918;SDS011;1974;48.670;8.994;2023-05-21T07:52:47;4.80;;;4.28;;
3918;SDS011;1974;48.670;8.994;2023-05-21T07:55:14;6.00;;;4.88;;
3918;SDS011;1974;48.670;8.994;2023-05-21T07:57:42;6.70;;;4.72;;
3918;SDS011;1974;48.670;8.994;2023-05-21T08:00:09;5.03;;;4.53;;
3918;SDS011;1974;48.670;8.994;2023-05-21T08:02:38;6.28;;;4.35;;
3918;SDS011;1974;48.670;8.994;2023-05-21T08:05:05;6.15;;;4.38;;
3918;SDS011;1974;48.670;8.994;2023-05-21T08:07:32;4.22;;;3.83;;
3918;SDS011;1974;48.670;8.994;2023-05-21T08:09:59;5.35;;;4.20;;
3918;SDS011;1974;48.670;8.994;2023-05-21T08:12:25;4.78;;;3.72;;
3918;SDS011;1974;48.670;8.994;2023-05-21T08:14:53;5.63;;;4.22;;
3918;SDS011;1974;48.670;8.994;2023-05-21T08:17:23;5.32;;;4.60;;
3918;SDS011;1974;48.670;8.994;2023-05-21T08:19:49;4.32;;;3.92;;
3918;SDS011;1974;48.670;8.994;2023-05-21T08:22:16;4.68;;;3.88;;
3918;SDS011;1974;48.670;8.994;2023-05-21T08:24:46;4.97;;;3.92;;
3918;SDS011;1974;48.670;8.994;2023-05-21T08:27:15;6.05;;;3.63;;
3918;SDS011;1974;48.670;8.994;2023-05-21T08:29:43;4.45;;;3.97;;
3918;SDS011;1974;48.670;8.994;2023-05-21T08:32:11;7.75;;;4.97;;
3918;SDS011;1974;48.670;8.994;2023-05-21T08:34:37;5.63;;;4.80;;
3918;SDS011;1974;48.670;8.994;2023-05-21T08:37:04;4.70;;;4.20;;
3918;SDS011;1974;48.670;8.994;2023-05-21T08:39:31;5.50;;;3.88;;
3918;SDS011;1974;48.670;8.994;2023-05-21T08:42:00;5.03;;;4.28;;
3918;SDS011;1974;48.670;8.994;2023-05-21T08:44:31;6.53;;;4.82;;
3918;SDS011;1974;48.670;8.994;2023-05-21T08:47:01;4.18;;;3.05;;
3918;SDS011;1974;48.670;8.994;2023-05-21T08:49:33;8.10;;;4.18;;
3918;SDS011;1974;48.670;8.994;2023-05-21T08:52:01;10.02;;;4.10;;
3918;SDS011;1974;48.670;8.994;2023-05-21T08:54:28;7.50;;;4.35;;
3918;SDS011;1974;48.670;8.994;2023-05-21T08:56:54;5.93;;;4.13;;
3918;SDS011;1974;48.670;8.994;2023-05-21T08:59:22;5.88;;;4.78;;
3918;SDS011;1974;48.670;8.994;2023-05-21T09:01:49;5.38;;;3.88;;
3918;SDS011;1974;48.670;8.994;2023-05-21T09:04:17;7.82;;;5.10;;
3918;SDS011;1974;48.670;8.994;2023-05-21T09:06:46;4.97;;;4.05;;
3918;SDS011;1974;48.670;8.994;2023-05-21T09:09:15;8.73;;;4.78;;
3918;SDS011;1974;48.670;8.994;2023-05-21T09:11:46;5.72;;;3.70;;
3918;SDS011;1974;48.670;8.994;2023-05-21T09:14:13;5.57;;;4.13;;
3918;SDS011;1974;48.670;8.994;2023-05-21T09:16:40;5.22;;;3.97;;
3918;SDS011;1974;48.670;8.994;2023-05-21T09:19:07;6.82;;;4.20;;
3918;SDS011;1974;48.670;8.994;2023-05-21T09:21:33;5.85;;;4.75;;
3918;SDS011;1974;48.670;8.994;2023-05-21T09:24:02;5.78;;;4.32;;
3918;SDS011;1974;48.670;8.994;2023-05-21T09:26:29;6.03;;;3.92;;
3918;SDS011;1974;48.670;8.994;2023-05-21T09:28:56;7.10;;;4.53;;
3918;SDS011;1974;48.670;8.994;2023-05-21T09:31:24;5.80;;;3.88;;
3918;SDS011;1974;48.670;8.994;2023-05-21T09:33:52;4.70;;;3.65;;
3918;SDS011;1974;48.670;8.994;2023-05-21T09:36:19;4.82;;;4.32;;
3918;SDS011;1974;48.670;8.994;2023-05-21T09:38:47;5.50;;;3.72;;
3918;SDS011;1974;48.670;8.994;2023-05-21T09:41:15;6.70;;;4.13;;
3918;SDS011;1974;48.670;8.994;2023-05-21T09:43:42;5.10;;;4.57;;
3918;SDS011;1974;48.670;8.994;2023-05-21T09:46:09;7.00;;;4.63;;
3918;SDS011;1974;48.670;8.994;2023-05-21T09:48:37;9.82;;;4.32;;
3918;SDS011;1974;48.670;8.994;2023-05-21T09:51:09;7.10;;;4.60;;
3918;SDS011;1974;48.670;8.994;2023-05-21T09:53:41;8.70;;;4.57;;
3918;SDS011;1974;48.670;8.994;2023-05-21T09:56:09;5.90;;;3.88;;
3918;SDS011;1974;48.670;8.994;2023-05-21T09:58:38;4.60;;;3.88;;
3918;SDS011;1974;48.670;8.994;2023-05-21T10:01:05;6.32;;;4.22;;
3918;SDS011;1974;48.670;8.994;2023-05-21T10:03:32;5.40;;;3.95;;
3918;SDS011;1974;48.670;8.994;2023-05-21T10:06:04;6.18;;;4.03;;
3918;SDS011;1974;48.670;8.994;2023-05-21T10:08:33;4.80;;;4.22;;
3918;SDS011;1974;48.670;8.994;2023-05-21T10:11:02;6.18;;;4.43;;
3918;SDS011;1974;48.670;8.994;2023-05-21T10:13:30;4.63;;;4.13;;
3918;SDS011;1974;48.670;8.994;2023-05-21T10:16:03;9.65;;;4.10;;
3918;SDS011;1974;48.670;8.994;2023-05-21T10:18:31;4.95;;;4.53;;
3918;SDS011;1974;48.670;8.994;2023-05-21T10:20:58;6.38;;;5.53;;
3918;SDS011;1974;48.670;8.994;2023-05-21T10:23:26;5.78;;;4.85;;
3918;SDS011;1974;48.670;8.994;2023-05-21T10:25:54;4.88;;;3.90;;
3918;SDS011;1974;48.670;8.994;2023-05-21T10:28:22;4.88;;;3.70;;
3918;SDS011;1974;48.670;8.994;2023-05-21T10:30:49;4.22;;;3.60;;
3918;SDS011;1974;48.670;8.994;2023-05-21T10:33:18;4.10;;;3.28;;
3918;SDS011;1974;48.670;8.994;2023-05-21T10:35:47;7.47;;;3.83;;
3918;SDS011;1974;48.670;8.994;2023-05-21T10:38:16;6.50;;;4.15;;
3918;SDS011;1974;48.670;8.994;2023-05-21T10:40:44;6.30;;;4.22;;
3918;SDS011;1974;48.670;8.994;2023-05-21T10:43:24;5.63;;;4.47;;
3918;SDS011;1974;48.670;8.994;2023-05-21T10:46:07;5.93;;;4.82;;
3918;SDS011;1974;48.670;8.994;2023-05-21T10:48:56;4.28;;;3.60;;
3918;SDS011;1974;48.670;8.994;2023-05-21T10:51:34;4.70;;;4.03;;
3918;SDS011;1974;48.670;8.994;2023-05-21T10:54:26;4.75;;;4.10;;
3918;SDS011;1974;48.670;8.994;2023-05-21T10:57:08;5.40;;;4.30;;
3918;SDS011;1974;48.670;8.994;2023-05-21T10:59:53;6.20;;;4.55;;
3918;SDS011;1974;48.670;8.994;2023-05-21T11:02:20;4.63;;;3.80;;
3918;SDS011;1974;48.670;8.994;2023-05-21T11:04:57;4.60;;;3.83;;
3918;SDS011;1974;48.670;8.994;2023-05-21T11:10:30;4.80;;;4.22;;
3918;SDS011;1974;48.670;8.994;2023-05-21T11:13:04;8.32;;;4.15;;
3918;SDS011;1974;48.670;8.994;2023-05-21T11:19:00;3.47;;;2.92;;
3918;SDS011;1974;48.670;8.994;2023-05-21T11:21:29;6.05;;;4.50;;
3918;SDS011;1974;48.670;8.994;2023-05-21T11:23:59;4.75;;;4.25;;
3918;SDS011;1974;48.670;8.994;2023-05-21T11:26:28;6.18;;;3.47;;
3918;SDS011;1974;48.670;8.994;2023-05-21T11:29:16;4.20;;;3.80;;
3918;SDS011;1974;48.670;8.994;2023-05-21T11:31:44;3.50;;;3.10;;
3918;SDS011;1974;48.670;8.994;2023-05-21T11:34:11;4.47;;;4.07;;
3918;SDS011;1974;48.670;8.994;2023-05-21T11:36:40;5.28;;;4.15;;
3918;SDS011;1974;48.670;8.994;2023-05-21T11:39:09;8.10;;;4.78;;
3918;SDS011;1974;48.670;8.994;2023-05-21T11:41:48;4.95;;;3.78;;
3918;SDS011;1974;48.670;8.994;2023-05-21T11:44:20;4.60;;;3.95;;
3918;SDS011;1974;48.670;8.994;2023-05-21T11:47:03;6.72;;;3.88;;
3918;SDS011;1974;48.670;8.994;2023-05-21T11:49:30;5.55;;;4.25;;
3918;SDS011;1974;48.670;8.994;2023-05-21T11:51:58;3.95;;;3.55;;
3918;SDS011;1974;48.670;8.994;2023-05-21T11:54:26;5.78;;;3.92;;
3918;SDS011;1974;48.670;8.994;2023-05-21T11:56:53;4.95;;;4.45;;
3918;SDS011;1974;48.670;8.994;2023-05-21T11:59:20;4.03;;;3.72;;
3918;SDS011;1974;48.670;8.994;2023-05-21T12:01:47;8.82;;;4.50;;
3918;SDS011;1974;48.670;8.994;2023-05-21T12:04:14;4.70;;;3.85;;
3918;SDS011;1974;48.670;8.994;2023-05-21T12:06:41;5.57;;;4.50;;
3918;SDS011;1974;48.670;8.994;2023-05-21T12:09:09;4.28;;;3.40;;
3918;SDS011;1974;48.670;8.994;2023-05-21T12:11:37;4.97;;;3.28;;
3918;SDS011;1974;48.670;8.994;2023-05-21T12:14:20;4.18;;;3.78;;
3918;SDS011;1974;48.670;8.994;2023-05-21T12:16:47;5.25;;;3.70;;
3918;SDS011;1974;48.670;8.994;2023-05-21T12:19:16;4.43;;;4.03;;
3918;SDS011;1974;48.670;8.994;2023-05-21T12:21:42;3.67;;;2.95;;
3918;SDS011;1974;48.670;8.994;2023-05-21T12:24:10;6.38;;;4.35;;
3918;SDS011;1974;48.670;8.994;2023-05-21T12:26:36;5.03;;;3.70;;
3918;SDS011;1974;48.670;8.994;2023-05-21T12:29:03;4.00;;;3.60;;
3918;SDS011;1974;48.670;8.994;2023-05-21T12:31:33;4.88;;;3.92;;
3918;SDS011;1974;48.670;8.994;2023-05-21T12:34:13;4.43;;;3.30;;
3918;SDS011;1974;48.670;8.994;2023-05-21T12:36:42;7.57;;;4.30;;
3918;SDS011;1974;48.670;8.994;2023-05-21T12:39:12;4.43;;;3.83;;
3918;SDS011;1974;48.670;8.994;2023-05-21T12:41:39;6.70;;;3.97;;
3918;SDS011;1974;48.670;8.994;2023-05-21T12:44:05;3.47;;;3.08;;
3918;SDS011;1974;48.670;8.994;2023-05-21T12:46:34;3.78;;;3.35;;
3918;SDS011;1974;48.670;8.994;2023-05-21T12:49:01;5.15;;;3.35;;
3918;SDS011;1974;48.670;8.994;2023-05-21T12:51:36;4.88;;;3.78;;
3918;SDS011;1974;48.670;8.994;2023-05-21T12:54:03;4.20;;;3.72;;
3918;SDS011;1974;48.670;8.994;2023-05-21T12:56:42;4.78;;;3.83;;
3918;SDS011;1974;48.670;8.994;2023-05-21T12:59:11;4.90;;;3.83;;
3918;SDS011;1974;48.670;8.994;2023-05-21T13:01:40;5.72;;;3.67;;
3918;SDS011;1974;48.670;8.994;2023-05-21T13:04:07;7.10;;;3.92;;
3918;SDS011;1974;48.670;8.994;2023-05-21T13:06:43;3.53;;;3.15;;
3918;SDS011;1974;48.670;8.994;2023-05-21T13:09:09;5.32;;;3.78;;
3918;SDS011;1974;48.670;8.994;2023-05-21T13:11:36;3.65;;;3.25;;
3918;SDS011;1974;48.670;8.994;2023-05-21T13:14:03;5.72;;;3.65;;
3918;SDS011;1974;48.670;8.994;2023-05-21T13:16:29;6.40;;;3.70;;
3918;SDS011;1974;48.670;8.994;2023-05-21T13:18:57;3.55;;;3.03;;
3918;SDS011;1974;48.670;8.994;2023-05-21T13:21:24;6.40;;;4.18;;
3918;SDS011;1974;48.670;8.994;2023-05-21T13:23:51;3.65;;;3.20;;
3918;SDS011;1974;48.670;8.994;2023-05-21T13:26:18;4.57;;;3.00;;
3918;SDS011;1974;48.670;8.994;2023-05-21T13:28:45;3.58;;;3.28;;
3918;SDS011;1974;48.670;8.994;2023-05-21T13:31:12;4.93;;;3.63;;
3918;SDS011;1974;48.670;8.994;2023-05-21T13:33:40;3.65;;;2.80;;
3918;SDS011;1974;48.670;8.994;2023-05-21T13:36:08;3.60;;;3.22;;
3918;SDS011;1974;48.670;8.994;2023-05-21T13:38:35;3.45;;;3.10;;
3918;SDS011;1974;48.670;8.994;2023-05-21T13:41:02;3.20;;;2.85;;
3918;SDS011;1974;48.670;8.994;2023-05-21T13:43:29;4.85;;;3.65;;
3918;SDS011;1974;48.670;8.994;2023-05-21T13:45:55;3.80;;;3.50;;
3918;SDS011;1974;48.670;8.994;2023-05-21T13:48:22;3.88;;;3.50;;
3918;SDS011;1974;48.670;8.994;2023-05-21T13:50:49;3.40;;;3.10;;
3918;SDS011;1974;48.670;8.994;2023-05-21T13:53:17;3.80;;;3.20;;
3918;SDS011;1974;48.670;8.994;2023-05-21T13:55:44;5.07;;;3.60;;
3918;SDS011;1974;48.670;8.994;2023-05-21T13:58:11;3.38;;;3.05;;
3918;SDS011;1974;48.670;8.994;2023-05-21T14:00:38;5.47;;;3.92;;
3918;SDS011;1974;48.670;8.994;2023-05-21T14:03:05;3.75;;;2.85;;
3918;SDS011;1974;48.670;8.994;2023-05-21T14:05:33;3.30;;;3.00;;
3918;SDS011;1974;48.670;8.994;2023-05-21T14:08:00;5.00;;;3.33;;
3918;SDS011;1974;48.670;8.994;2023-05-21T14:10:28;5.05;;;4.25;;
3918;SDS011;1974;48.670;8.994;2023-05-21T14:12:55;5.15;;;3.35;;
3918;SDS011;1974;48.670;8.994;2023-05-21T14:15:22;3.50;;;3.07;;
3918;SDS011;1974;48.670;8.994;2023-05-21T14:17:48;3.63;;;3.17;;
3918;SDS011;1974;48.670;8.994;2023-05-21T14:20:16;4.40;;;3.55;;
3918;SDS011;1974;48.670;8.994;2023-05-21T14:22:43;3.33;;;2.50;;
3918;SDS011;1974;48.670;8.994;2023-05-21T14:25:10;4.20;;;2.72;;
3918;SDS011;1974;48.670;8.994;2023-05-21T14:27:38;3.40;;;3.10;;
3918;SDS011;1974;48.670;8.994;2023-05-21T14:30:05;4.05;;;3.63;;
3918;SDS011;1974;48.670;8.994;2023-05-21T14:32:33;4.80;;;3.50;;
3918;SDS011;1974;48.670;8.994;2023-05-21T14:34:59;3.80;;;2.63;;
3918;SDS011;1974;48.670;8.994;2023-05-21T14:37:26;3.03;;;2.83;;
3918;SDS011;1974;48.670;8.994;2023-05-21T14:39:53;3.80;;;3.35;;
3918;SDS011;1974;48.670;8.994;2023-05-21T14:42:19;4.68;;;3.30;;
3918;SDS011;1974;48.670;8.994;2023-05-21T14:44:48;2.95;;;2.65;;
3918;SDS011;1974;48.670;8.994;2023-05-21T14:47:14;3.28;;;2.85;;
3918;SDS011;1974;48.670;8.994;2023-05-21T14:49:41;2.63;;;2.43;;
3918;SDS011;1974;48.670;8.994;2023-05-21T14:52:08;2.80;;;2.60;;
3918;SDS011;1974;48.670;8.994;2023-05-21T14:54:35;2.65;;;2.42;;
3918;SDS011;1974;48.670;8.994;2023-05-21T14:57:02;5.85;;;3.65;;
3918;SDS011;1974;48.670;8.994;2023-05-21T14:59:29;2.63;;;2.42;;
3918;SDS011;1974;48.670;8.994;2023-05-21T15:01:57;5.75;;;2.20;;
3918;SDS011;1974;48.670;8.994;2023-05-21T15:04:24;3.00;;;2.35;;
3918;SDS011;1974;48.670;8.994;2023-05-21T15:06:51;3.38;;;2.55;;
3918;SDS011;1974;48.670;8.994;2023-05-21T15:09:18;2.63;;;2.35;;
3918;SDS011;1974;48.670;8.994;2023-05-21T15:11:44;2.20;;;1.92;;
3918;SDS011;1974;48.670;8.994;2023-05-21T15:14:16;3.30;;;2.60;;
3918;SDS011;1974;48.670;8.994;2023-05-21T15:16:43;2.67;;;2.47;;
3918;SDS011;1974;48.670;8.994;2023-05-21T15:19:11;3.38;;;2.60;;
3918;SDS011;1974;48.670;8.994;2023-05-21T15:21:37;2.42;;;2.22;;
3918;SDS011;1974;48.670;8.994;2023-05-21T15:24:04;4.20;;;2.88;;